createdAt,value
2018-04-01T00:02:20.319Z,2.60
2018-04-01T00:04:47.195Z,2.60
2018-04-01T00:07:14.070Z,2.60
2018-04-01T00:09:40.976Z,2.60
2018-04-01T00:12:08.207Z,2.50
2018-04-01T00:14:35.479Z,2.50
2018-04-01T00:17:07.207Z,2.50
2018-04-01T00:19:34.068Z,2.50
2018-04-01T00:22:01.342Z,2.50
2018-04-01T00:24:28.235Z,2.40
2018-04-01T00:26:55.077Z,2.40
2018-04-01T00:29:21.927Z,2.30
2018-04-01T00:31:48.863Z,2.30
2018-04-01T00:34:15.755Z,2.30
2018-04-01T00:36:42.750Z,2.30
2018-04-01T00:39:09.586Z,2.30
2018-04-01T00:41:36.487Z,2.20
2018-04-01T00:44:03.364Z,2.20
2018-04-01T00:46:30.235Z,2.20
2018-04-01T00:48:57.502Z,2.20
2018-04-01T00:51:24.766Z,2.20
2018-04-01T00:53:51.752Z,2.10
2018-04-01T00:56:18.631Z,2.10
2018-04-01T01:01:40.676Z,2.10
2018-04-01T01:04:09.940Z,2.10
2018-04-01T01:06:36.842Z,2.10
2018-04-01T01:09:04.643Z,2.10
2018-04-01T01:11:31.508Z,2.10
2018-04-01T01:13:58.436Z,2.10
2018-04-01T01:16:25.266Z,2.10
2018-04-01T01:18:52.204Z,2.10
2018-04-01T01:21:19.103Z,2.10
2018-04-01T01:23:46.343Z,2.00
2018-04-01T01:26:13.590Z,2.00
2018-04-01T01:28:45.460Z,2.00
2018-04-01T01:31:12.727Z,2.00
2018-04-01T01:33:40.097Z,2.00
2018-04-01T01:36:06.983Z,1.90
2018-04-01T01:38:34.216Z,1.90
2018-04-01T01:41:01.085Z,1.90
2018-04-01T01:43:27.971Z,1.90
2018-04-01T01:45:54.822Z,2.00
2018-04-01T01:48:23.675Z,2.00
2018-04-01T01:50:50.555Z,2.00
2018-04-01T01:53:17.507Z,2.00
2018-04-01T01:55:51.402Z,2.00
2018-04-01T01:58:18.236Z,2.10
2018-04-01T02:00:45.107Z,2.10
2018-04-01T02:03:11.983Z,2.10
2018-04-01T02:05:38.868Z,2.10
2018-04-01T02:08:05.831Z,2.10
2018-04-01T02:10:34.753Z,2.00
2018-04-01T02:13:01.614Z,2.00
2018-04-01T02:15:28.887Z,2.10
2018-04-01T02:17:55.734Z,2.10
2018-04-01T02:20:22.957Z,2.10
2018-04-01T02:22:50.195Z,2.10
2018-04-01T02:25:19.090Z,2.20
2018-04-01T02:27:46.405Z,2.20
2018-04-01T02:30:13.271Z,2.20
2018-04-01T02:32:40.222Z,2.20
2018-04-01T02:35:07.485Z,2.20
2018-04-01T02:37:34.753Z,2.10
2018-04-01T02:40:01.618Z,2.20
2018-04-01T02:42:28.544Z,2.30
2018-04-01T02:44:55.475Z,2.30
2018-04-01T02:47:22.716Z,2.30
2018-04-01T02:49:49.982Z,2.20
2018-04-01T02:52:16.919Z,2.20
2018-04-01T02:54:44.168Z,2.20
2018-04-01T02:57:11.471Z,2.20
2018-04-01T02:59:38.475Z,2.20
2018-04-01T03:02:18.837Z,2.30
2018-04-01T03:04:45.671Z,2.30
2018-04-01T03:07:12.540Z,2.40
2018-04-01T03:09:39.411Z,2.30
2018-04-01T03:12:06.325Z,2.40
2018-04-01T03:14:33.178Z,2.40
2018-04-01T03:17:00.142Z,2.40
2018-04-01T03:19:31.888Z,2.40
2018-04-01T03:21:58.794Z,2.40
2018-04-01T03:24:25.665Z,2.40
2018-04-01T03:26:52.886Z,2.40
2018-04-01T03:32:19.040Z,2.40
2018-04-01T03:34:45.915Z,2.50
2018-04-01T03:37:12.810Z,2.50
2018-04-01T03:39:39.694Z,2.50
2018-04-01T03:42:06.590Z,2.50
2018-04-01T03:44:33.452Z,2.50
2018-04-01T03:47:00.317Z,2.50
2018-04-01T03:49:27.199Z,2.50
2018-04-01T03:51:54.056Z,2.40
2018-04-01T03:54:21.319Z,2.50
2018-04-01T03:56:48.192Z,2.50
2018-04-01T03:59:15.115Z,2.50
2018-04-01T04:01:41.958Z,2.40
2018-04-01T04:04:08.816Z,2.50
2018-04-01T04:06:35.692Z,2.50
2018-04-01T04:09:02.584Z,2.60
2018-04-01T04:11:41.099Z,2.50
2018-04-01T04:14:08.371Z,2.50
2018-04-01T04:16:35.267Z,2.60
2018-04-01T04:19:02.594Z,2.60
2018-04-01T04:21:29.465Z,2.60
2018-04-01T04:23:56.319Z,2.60
2018-04-01T04:26:23.262Z,2.60
2018-04-01T04:28:50.142Z,2.60
2018-04-01T04:31:38.406Z,2.50
2018-04-01T04:34:05.259Z,2.60
2018-04-01T04:36:32.146Z,2.60
2018-04-01T04:38:58.995Z,2.60
2018-04-01T04:41:25.883Z,2.60
2018-04-01T04:43:52.747Z,2.40
2018-04-01T04:46:20.008Z,2.40
2018-04-01T04:48:46.919Z,2.10
2018-04-01T04:51:13.750Z,2.30
2018-04-01T04:53:40.607Z,2.50
2018-04-01T04:56:07.476Z,2.30
2018-04-01T04:58:34.372Z,2.40
2018-04-01T05:01:01.227Z,2.50
2018-04-01T05:03:28.122Z,2.60
2018-04-01T05:05:55.938Z,2.60
2018-04-01T05:08:22.840Z,2.60
2018-04-01T05:10:49.691Z,2.60
2018-04-01T05:13:36.918Z,2.70
2018-04-01T05:16:04.032Z,2.70
2018-04-01T05:18:30.893Z,2.60
2018-04-01T05:20:57.738Z,2.70
2018-04-01T05:23:38.986Z,2.70
2018-04-01T05:26:05.930Z,2.70
2018-04-01T05:28:33.151Z,2.70
2018-04-01T05:31:07.981Z,2.80
2018-04-01T05:33:38.184Z,2.80
2018-04-01T05:36:05.008Z,2.70
2018-04-01T05:38:31.874Z,2.70
2018-04-01T05:40:58.774Z,2.70
2018-04-01T05:43:29.143Z,2.70
2018-04-01T05:45:56.051Z,2.70
2018-04-01T05:48:22.933Z,2.70
2018-04-01T05:50:50.395Z,2.70
2018-04-01T05:53:17.644Z,2.70
2018-04-01T05:55:44.879Z,2.70
2018-04-01T05:58:11.763Z,2.70
2018-04-01T06:00:39.644Z,2.70
2018-04-01T06:03:06.916Z,2.70
2018-04-01T06:05:33.771Z,2.80
2018-04-01T06:10:29.390Z,2.80
2018-04-01T06:12:56.439Z,2.90
2018-04-01T06:15:23.478Z,2.90
2018-04-01T06:17:50.801Z,2.90
2018-04-01T06:20:17.881Z,2.90
2018-04-01T06:22:45.187Z,2.90
2018-04-01T06:25:12.111Z,3.00
2018-04-01T06:27:39.133Z,3.00
2018-04-01T06:30:07.734Z,3.00
2018-04-01T06:32:38.959Z,3.00
2018-04-01T06:35:06.418Z,3.00
2018-04-01T06:37:33.796Z,3.10
2018-04-01T06:40:00.997Z,3.10
2018-04-01T06:42:28.073Z,3.10
2018-04-01T06:44:55.531Z,3.10
2018-04-01T06:47:23.062Z,3.20
2018-04-01T06:49:51.266Z,3.20
2018-04-01T06:52:24.051Z,3.20
2018-04-01T06:54:51.504Z,3.30
2018-04-01T06:57:18.826Z,3.30
2018-04-01T06:59:46.833Z,3.30
2018-04-01T07:02:14.145Z,3.40
2018-04-01T07:04:42.717Z,3.30
2018-04-01T07:07:09.714Z,3.30
2018-04-01T07:09:37.210Z,3.40
2018-04-01T07:12:04.436Z,3.40
2018-04-01T07:14:32.190Z,3.50
2018-04-01T07:17:01.696Z,3.50
2018-04-01T07:19:28.851Z,3.50
2018-04-01T07:21:56.303Z,3.50
2018-04-01T07:24:23.765Z,3.50
2018-04-01T07:26:51.219Z,3.60
2018-04-01T07:29:22.056Z,3.70
2018-04-01T07:31:49.129Z,3.60
2018-04-01T07:34:16.462Z,3.50
2018-04-01T07:36:44.022Z,3.60
2018-04-01T07:39:12.946Z,3.60
2018-04-01T07:41:40.164Z,3.70
2018-04-01T07:44:07.620Z,3.80
2018-04-01T07:46:35.079Z,3.80
2018-04-01T07:51:29.385Z,3.80
2018-04-01T07:53:56.735Z,3.90
2018-04-01T07:56:25.525Z,3.90
2018-04-01T07:58:52.570Z,3.90
2018-04-01T08:01:19.928Z,3.90
2018-04-01T08:03:47.383Z,4.00
2018-04-01T08:06:14.776Z,3.90
2018-04-01T08:08:42.198Z,4.00
2018-04-01T08:11:11.933Z,4.00
2018-04-01T08:13:39.282Z,4.00
2018-04-01T08:16:07.028Z,4.00
2018-04-01T08:18:34.405Z,4.10
2018-04-01T08:21:02.763Z,4.00
2018-04-01T08:23:30.438Z,4.10
2018-04-01T08:25:57.475Z,4.10
2018-04-01T08:28:25.140Z,4.20
2018-04-01T08:30:52.417Z,4.40
2018-04-01T08:33:20.216Z,4.40
2018-04-01T08:35:47.179Z,4.50
2018-04-01T08:38:19.006Z,4.50
2018-04-01T08:40:46.314Z,4.60
2018-04-01T08:43:14.435Z,4.60
2018-04-01T08:45:41.537Z,4.70
2018-04-01T08:48:08.963Z,4.80
2018-04-01T08:50:36.450Z,4.80
2018-04-01T08:53:03.954Z,4.90
2018-04-01T08:55:31.164Z,5.00
2018-04-01T08:57:58.312Z,5.10
2018-04-01T09:00:25.564Z,5.20
2018-04-01T09:02:52.951Z,5.30
2018-04-01T09:05:20.383Z,5.30
2018-04-01T09:07:47.834Z,5.30
2018-04-01T09:10:15.403Z,5.40
2018-04-01T09:12:43.130Z,5.50
2018-04-01T09:15:10.418Z,5.50
2018-04-01T09:17:37.430Z,5.50
2018-04-01T09:20:04.434Z,5.50
2018-04-01T09:22:33.669Z,5.60
2018-04-01T09:25:10.894Z,5.50
2018-04-01T09:27:39.065Z,5.60
2018-04-01T09:30:06.482Z,5.70
2018-04-01T09:32:33.573Z,5.80
2018-04-01T09:35:02.056Z,5.90
2018-04-01T09:37:29.616Z,6.00
2018-04-01T09:39:58.529Z,5.90
2018-04-01T09:42:25.654Z,6.00
2018-04-01T09:44:53.112Z,6.20
2018-04-01T09:47:20.365Z,6.20
2018-04-01T09:49:47.744Z,6.30
2018-04-01T09:52:15.935Z,6.40
2018-04-01T09:54:50.660Z,6.50
2018-04-01T09:57:17.776Z,6.50
2018-04-01T09:59:45.265Z,6.60
2018-04-01T10:02:12.717Z,6.60
2018-04-01T10:04:40.249Z,6.60
2018-04-01T10:07:08.526Z,6.60
2018-04-01T10:09:36.086Z,6.60
2018-04-01T10:12:03.599Z,6.70
2018-04-01T10:14:31.205Z,6.80
2018-04-01T10:16:59.176Z,6.80
2018-04-01T10:19:27.658Z,7.00
2018-04-01T10:21:55.729Z,7.00
2018-04-01T10:24:23.261Z,7.10
2018-04-01T10:26:56.091Z,7.10
2018-04-01T10:29:27.339Z,7.10
2018-04-01T10:31:55.904Z,7.10
2018-04-01T10:34:23.856Z,7.20
2018-04-01T10:36:52.466Z,7.20
2018-04-01T10:39:20.120Z,7.30
2018-04-01T10:41:48.653Z,7.50
2018-04-01T10:44:16.161Z,7.60
2018-04-01T10:46:44.134Z,7.80
2018-04-01T10:49:12.441Z,7.80
2018-04-01T10:51:40.888Z,7.90
2018-04-01T10:54:07.938Z,7.90
2018-04-01T10:56:35.192Z,7.90
2018-04-01T10:59:02.240Z,7.80
2018-04-01T11:01:30.321Z,7.80
2018-04-01T11:03:57.361Z,7.90
2018-04-01T11:06:24.750Z,7.90
2018-04-01T11:08:51.762Z,8.00
2018-04-01T11:11:19.155Z,8.00
2018-04-01T11:13:46.167Z,8.10
2018-04-01T11:16:13.627Z,8.30
2018-04-01T11:18:40.671Z,8.30
2018-04-01T11:21:07.990Z,8.20
2018-04-01T11:23:35.075Z,8.50
2018-04-01T11:26:02.297Z,8.60
2018-04-01T11:28:29.780Z,8.70
2018-04-01T11:30:57.139Z,8.70
2018-04-01T11:33:25.222Z,8.90
2018-04-01T11:35:52.268Z,9.00
2018-04-01T11:38:20.704Z,9.30
2018-04-01T11:40:48.198Z,9.40
2018-04-01T11:43:15.148Z,9.50
2018-04-01T11:45:42.706Z,9.60
2018-04-01T11:48:09.865Z,9.60
2018-04-01T11:50:37.420Z,9.50
2018-04-01T11:53:04.462Z,9.60
2018-04-01T11:55:32.023Z,9.90
2018-04-01T11:57:59.376Z,9.90
2018-04-01T12:00:26.425Z,9.80
2018-04-01T12:02:55.159Z,10.10
2018-04-01T12:05:22.163Z,10.10
2018-04-01T12:07:49.132Z,10.30
2018-04-01T12:10:16.306Z,10.50
2018-04-01T12:12:43.360Z,10.80
2018-04-01T12:15:10.455Z,10.60
2018-04-01T12:17:37.810Z,10.80
2018-04-01T12:20:05.272Z,10.70
2018-04-01T12:22:32.315Z,10.80
2018-04-01T12:24:59.622Z,10.80
2018-04-01T12:27:26.717Z,11.10
2018-04-01T12:29:54.179Z,11.30
2018-04-01T12:32:21.776Z,11.10
2018-04-01T12:34:49.679Z,11.20
2018-04-01T12:37:16.671Z,11.40
2018-04-01T12:39:43.901Z,11.60
2018-04-01T12:42:11.316Z,11.20
2018-04-01T12:44:38.405Z,11.70
2018-04-01T12:47:06.102Z,11.60
2018-04-01T12:49:33.165Z,11.70
2018-04-01T12:52:00.269Z,12.10
2018-04-01T12:54:27.523Z,11.90
2018-04-01T12:56:55.800Z,12.10
2018-04-01T12:59:23.397Z,11.80
2018-04-01T13:01:50.774Z,11.90
2018-04-01T13:04:18.074Z,12.00
2018-04-01T13:06:45.117Z,11.90
2018-04-01T13:09:16.329Z,11.60
2018-04-01T13:11:43.318Z,12.20
2018-04-01T13:14:10.254Z,12.00
2018-04-01T13:16:37.815Z,12.10
2018-04-01T13:19:04.903Z,12.60
2018-04-01T13:21:32.124Z,12.60
2018-04-01T13:23:59.675Z,13.10
2018-04-01T13:26:27.237Z,12.70
2018-04-01T13:28:55.138Z,12.20
2018-04-01T13:31:23.070Z,12.50
2018-04-01T13:33:50.428Z,13.10
2018-04-01T13:36:17.810Z,13.00
2018-04-01T13:38:46.161Z,13.50
2018-04-01T13:41:13.618Z,13.80
2018-04-01T13:43:41.077Z,13.40
2018-04-01T13:46:08.536Z,13.20
2018-04-01T13:48:35.999Z,12.90
2018-04-01T13:51:03.450Z,14.10
2018-04-01T13:53:30.463Z,14.60
2018-04-01T13:55:57.957Z,14.60
2018-04-01T13:58:25.347Z,14.50
2018-04-01T14:00:52.569Z,14.40
2018-04-01T14:03:20.022Z,13.90
2018-04-01T14:05:47.170Z,13.60
2018-04-01T14:08:14.730Z,15.30
2018-04-01T14:10:41.881Z,15.90
2018-04-01T14:13:09.466Z,15.70
2018-04-01T14:15:36.664Z,15.40
2018-04-01T14:18:03.674Z,15.10
2018-04-01T14:20:30.727Z,15.50
2018-04-01T14:22:57.839Z,15.50
2018-04-01T14:25:24.987Z,16.50
2018-04-01T14:27:52.810Z,15.90
2018-04-01T14:30:19.790Z,16.60
2018-04-01T14:32:48.230Z,16.30
2018-04-01T14:35:15.236Z,16.20
2018-04-01T14:37:42.693Z,15.40
2018-04-01T14:40:13.729Z,15.80
2018-04-01T14:42:41.160Z,16.50
2018-04-01T14:45:08.155Z,16.00
2018-04-01T14:47:35.413Z,16.10
2018-04-01T14:53:04.405Z,16.20
2018-04-01T14:55:32.060Z,16.20
2018-04-01T14:57:59.961Z,15.90
2018-04-01T15:03:25.768Z,15.10
2018-04-01T15:05:52.921Z,15.10
2018-04-01T15:08:20.429Z,14.50
2018-04-01T15:10:47.629Z,14.50
2018-04-01T15:13:14.678Z,15.10
2018-04-01T15:15:42.081Z,15.10
2018-04-01T15:18:09.085Z,14.90
2018-04-01T15:20:36.171Z,15.20
2018-04-01T15:23:03.377Z,14.90
2018-04-01T15:25:30.840Z,15.50
2018-04-01T15:27:58.300Z,16.30
2018-04-01T15:30:25.550Z,15.60
2018-04-01T15:32:53.111Z,14.30
2018-04-01T15:35:20.604Z,13.90
2018-04-01T15:37:47.652Z,14.40
2018-04-01T15:40:14.601Z,14.70
2018-04-01T15:42:41.717Z,15.00
2018-04-01T15:45:08.861Z,15.90
2018-04-01T15:47:36.962Z,15.70
2018-04-01T15:50:04.390Z,15.50
2018-04-01T15:52:31.953Z,14.80
2018-04-01T15:54:59.408Z,14.70
2018-04-01T15:57:26.866Z,14.30
2018-04-01T15:59:54.835Z,14.60
2018-04-01T16:02:21.802Z,15.20
2018-04-01T16:04:48.934Z,15.20
2018-04-01T16:07:16.388Z,15.40
2018-04-01T16:09:43.765Z,15.10
2018-04-01T16:12:10.791Z,15.20
2018-04-01T16:14:38.776Z,14.60
2018-04-01T16:17:05.827Z,14.40
2018-04-01T16:19:32.857Z,15.00
2018-04-01T16:22:00.416Z,15.40
2018-04-01T16:24:27.386Z,15.00
2018-04-01T16:26:54.678Z,14.10
2018-04-01T16:29:21.678Z,14.70
2018-04-01T16:31:49.326Z,14.80
2018-04-01T16:34:16.783Z,14.70
2018-04-01T16:36:44.138Z,14.40
2018-04-01T16:39:11.185Z,13.90
2018-04-01T16:41:38.558Z,14.30
2018-04-01T16:44:06.349Z,14.20
2018-04-01T16:46:33.966Z,14.00
2018-04-01T16:49:01.429Z,14.30
2018-04-01T16:51:28.896Z,14.30
2018-04-01T16:53:55.829Z,14.20
2018-04-01T16:56:23.289Z,13.90
2018-04-01T16:58:50.744Z,13.40
2018-04-01T17:01:18.409Z,13.70
2018-04-01T17:03:45.761Z,13.50
2018-04-01T17:06:13.117Z,13.50
2018-04-01T17:08:40.613Z,13.30
2018-04-01T17:11:07.731Z,13.30
2018-04-01T17:13:35.286Z,12.80
2018-04-01T17:16:02.233Z,13.00
2018-04-01T17:18:29.614Z,13.00
2018-04-01T17:20:56.738Z,12.90
2018-04-01T17:23:24.194Z,12.60
2018-04-01T17:25:51.609Z,12.30
2018-04-01T17:28:20.002Z,12.30
2018-04-01T17:30:47.691Z,12.20
2018-04-01T17:33:15.156Z,11.90
2018-04-01T17:35:43.562Z,11.70
2018-04-01T17:38:10.580Z,11.60
2018-04-01T17:40:37.770Z,11.30
2018-04-01T17:43:04.776Z,11.30
2018-04-01T17:45:31.826Z,11.10
2018-04-01T17:47:59.148Z,11.00
2018-04-01T17:50:26.229Z,10.80
2018-04-01T17:52:53.787Z,10.70
2018-04-01T17:55:21.140Z,10.60
2018-04-01T17:57:49.682Z,10.40
2018-04-01T18:00:16.774Z,10.30
2018-04-01T18:02:43.926Z,10.20
2018-04-01T18:05:11.592Z,9.90
2018-04-01T18:07:38.841Z,9.70
2018-04-01T18:10:05.816Z,9.70
2018-04-01T18:12:32.937Z,9.70
2018-04-01T18:14:59.986Z,9.50
2018-04-01T18:17:27.374Z,9.20
2018-04-01T18:19:54.899Z,9.00
2018-04-01T18:22:21.976Z,9.00
2018-04-01T18:24:48.997Z,8.70
2018-04-01T18:27:16.155Z,8.80
2018-04-01T18:29:43.405Z,8.90
2018-04-01T18:32:10.552Z,8.80
2018-04-01T18:34:37.631Z,8.50
2018-04-01T18:37:04.748Z,8.40
2018-04-01T18:39:31.730Z,8.40
2018-04-01T18:41:58.932Z,8.30
2018-04-01T18:44:26.114Z,8.20
2018-04-01T18:46:53.146Z,8.10
2018-04-01T18:49:20.195Z,7.90
2018-04-01T18:51:47.242Z,7.90
2018-04-01T18:54:14.904Z,7.90
2018-04-01T18:56:42.167Z,7.90
2018-04-01T18:59:09.319Z,7.90
2018-04-01T19:01:36.459Z,7.80
2018-04-01T19:04:03.607Z,7.70
2018-04-01T19:06:31.002Z,7.60
2018-04-01T19:08:58.176Z,7.50
2018-04-01T19:11:25.197Z,7.30
2018-04-01T19:13:52.239Z,7.10
2018-04-01T19:16:20.760Z,7.10
2018-04-01T19:18:48.385Z,6.80
2018-04-01T19:21:16.223Z,6.70
2018-04-01T19:23:44.238Z,6.70
2018-04-01T19:26:12.211Z,6.60
2018-04-01T19:28:39.906Z,6.60
2018-04-01T19:31:07.818Z,6.50
2018-04-01T19:33:35.415Z,6.40
2018-04-01T19:36:03.375Z,6.20
2018-04-01T19:38:31.023Z,6.20
2018-04-01T19:40:58.648Z,6.20
2018-04-01T19:43:26.260Z,6.20
2018-04-01T19:45:53.970Z,6.30
2018-04-01T19:48:21.637Z,6.20
2018-04-01T19:50:49.706Z,6.20
2018-04-01T19:53:17.780Z,6.10
2018-04-01T19:55:45.851Z,6.10
2018-04-01T19:58:14.127Z,6.00
2018-04-01T20:00:42.615Z,5.90
2018-04-01T20:03:10.989Z,5.80
2018-04-01T20:05:38.721Z,5.80
2018-04-01T20:08:06.727Z,5.80
2018-04-01T20:10:34.693Z,5.70
2018-04-01T20:13:02.457Z,5.60
2018-04-01T20:15:30.533Z,5.60
2018-04-01T20:17:59.142Z,5.50
2018-04-01T20:20:26.907Z,5.50
2018-04-01T20:22:54.541Z,5.40
2018-04-01T20:25:22.122Z,5.40
2018-04-01T20:27:50.072Z,5.30
2018-04-01T20:30:18.041Z,5.30
2018-04-01T20:32:45.704Z,5.30
2018-04-01T20:35:14.082Z,5.20
2018-04-01T20:37:42.890Z,5.20
2018-04-01T20:40:10.711Z,5.10
2018-04-01T20:42:43.315Z,5.10
2018-04-01T20:45:11.080Z,5.00
2018-04-01T20:47:39.152Z,5.00
2018-04-01T20:50:07.023Z,4.90
2018-04-01T20:52:34.886Z,4.90
2018-04-01T20:55:02.552Z,4.80
2018-04-01T20:57:33.942Z,4.70
2018-04-01T21:00:01.765Z,4.60
2018-04-01T21:02:33.836Z,4.60
2018-04-01T21:05:01.966Z,4.60
2018-04-01T21:07:29.770Z,4.60
2018-04-01T21:10:03.576Z,4.60
2018-04-01T21:12:31.648Z,4.50
2018-04-01T21:14:59.348Z,4.50
2018-04-01T21:17:26.973Z,4.50
2018-04-01T21:20:00.422Z,4.40
2018-04-01T21:22:28.543Z,4.40
2018-04-01T21:24:56.512Z,4.40
2018-04-01T21:27:24.585Z,4.40
2018-04-01T21:29:52.144Z,4.30
2018-04-01T21:32:20.628Z,4.30
2018-04-01T21:34:48.558Z,4.20
2018-04-01T21:37:16.259Z,4.20
2018-04-01T21:39:44.126Z,4.20
2018-04-01T21:42:11.616Z,4.20
2018-04-01T21:44:39.142Z,4.10
2018-04-01T21:47:06.704Z,4.10
2018-04-01T21:49:35.183Z,4.00
2018-04-01T21:52:03.230Z,4.00
2018-04-01T21:54:30.981Z,4.00
2018-04-01T21:56:59.092Z,4.00
2018-04-01T21:59:27.131Z,3.90
2018-04-01T22:01:55.136Z,3.90
2018-04-01T22:04:23.411Z,3.80
2018-04-01T22:06:51.485Z,3.80
2018-04-01T22:09:19.453Z,3.70
2018-04-01T22:11:47.433Z,3.70
2018-04-01T22:14:15.089Z,3.60
2018-04-01T22:16:42.953Z,3.60
2018-04-01T22:19:11.234Z,3.60
2018-04-01T22:21:39.310Z,3.60
2018-04-01T22:24:06.808Z,3.50
2018-04-01T22:26:34.527Z,3.50
2018-04-01T22:29:02.493Z,3.40
2018-04-01T22:31:30.565Z,3.40
2018-04-01T22:33:58.539Z,3.30
2018-04-01T22:36:26.115Z,3.30
2018-04-01T22:38:53.790Z,3.30
2018-04-01T22:41:21.458Z,3.30
2018-04-01T22:43:49.084Z,3.30
2018-04-01T22:46:17.155Z,3.20
2018-04-01T22:48:45.739Z,3.20
2018-04-01T22:51:15.653Z,3.10
2018-04-01T22:53:43.832Z,3.10
2018-04-01T22:56:11.900Z,3.00
2018-04-01T22:58:39.871Z,3.00
2018-04-01T23:01:07.654Z,3.00
2018-04-01T23:03:35.299Z,3.00
2018-04-01T23:06:03.188Z,2.90
2018-04-01T23:08:30.756Z,2.90
2018-04-01T23:10:58.388Z,2.90
2018-04-01T23:13:26.281Z,2.90
2018-04-01T23:15:53.917Z,2.90
2018-04-01T23:18:22.193Z,2.90
2018-04-01T23:20:50.266Z,2.80
2018-04-01T23:23:18.234Z,2.80
2018-04-01T23:25:46.313Z,2.80
2018-04-01T23:28:14.381Z,2.70
2018-04-01T23:30:42.066Z,2.70
2018-04-01T23:33:09.914Z,2.70
2018-04-01T23:35:37.808Z,2.60
2018-04-01T23:38:05.438Z,2.60
2018-04-01T23:40:33.385Z,2.60
2018-04-01T23:43:00.971Z,2.50
2018-04-01T23:45:29.260Z,2.50
2018-04-01T23:47:56.907Z,2.50
2018-04-01T23:50:24.984Z,2.50
2018-04-01T23:52:52.447Z,2.50
2018-04-01T23:55:20.613Z,2.50
2018-04-01T23:57:48.172Z,2.50
